Weather observations for the past three days for
Shreveport, Shreveport Regional Airport
Metric (Imperial)
Date Time (cdt) Wind (kph) Vis. (km) Weather Sky Cond. Temperature (ºC) Relative Humidity Wind Chill (°C) Heat Index (°C) Pressure Precipitation (cm)
Air Dwpt 6 hour altimeter (cm) sea level (mb) 1 hr 3 hr 6 hr
Max. Min.
02 12:56 Calm 16.09 A Few Clouds FEW050 21 6 38% 76.58 0.0
02 11:56 N 11 16.09 A Few Clouds FEW050 21 6 38% 76.61 0.0
02 10:56 NE 9 16.09 Fair CLR 19 8 49% 76.58 0.0
02 09:56 NE 11 16.09 Fair CLR 18 11 64% 76.56 0.0
02 08:56 N 13 16.09 Fair CLR 16 11 72% 76.53 0.0
02 07:56 N 9 16.09 A Few Clouds FEW110 FEW150 14 11 82% 76.5 0.0
02 06:56 N 7 16.09 Partly Cloudy FEW110 SCT150 13 11 88% 76.4 0.0
02 05:56 N 11 16.09 Mostly Cloudy FEW110 BKN150 13 11 88% 76.35 0.0
02 04:56 N 13 16.09 Mostly Cloudy FEW110 BKN150 13 12 94% 76.3 0.0
02 03:56 N 15 16.09 Overcast FEW090 SCT110 OVC140 14 12 88% 76.3 0.0
02 02:56 N 11 16.09 Overcast SCT090 BKN110 OVC130 14 11 82% 76.3 0.0
02 01:56 N 13 16.09 Overcast SCT090 BKN110 OVC130 14 11 82% 76.28 0.0
02 00:56 NW 11 16.09 Overcast SCT090 OVC100 14 12 88% 76.33 0.0
01 23:56 N 9 16.09 Overcast BKN090 OVC100 13 12 94% 76.3 0.0
01 22:56 SE 7 16.09 Overcast BKN090 OVC110 13 12 94% 76.25 0.0
01 21:56 N 6 16.09 Light Rain BKN095 OVC110 14 12 88% 76.28 0.0
01 20:56 N 7 16.09 Overcast FEW070 OVC095 14 12 88% 76.25 0.0
01 19:56 NE 7 16.09 Light Rain FEW070 OVC100 14 11 82% 76.17 0.0
01 18:56 E 13 16.09 Light Rain FEW065 BKN090 OVC110 14 12 88% 76.15 0.0
01 17:56 E 11 16.09 Overcast BKN065 OVC080 14 11 82% 76.15 0.0
01 16:56 N 13 16.09 Overcast BKN060 OVC080 14 11 82% 76.1 0.0
01 15:56 N 15 16.09 Overcast BKN048 OVC080 14 11 82% 76.05 0.0
01 14:56 NE 19 G 33 16.09 Light Rain FEW012 SCT060 OVC100 13 12 94% 76 0.0
01 13:56 NE 19 16.09 Light Rain FEW012 SCT070 OVC100 13 12 94% 76.17 0.0
01 12:56 NE 17 11.27 Light Rain FEW008 BKN060 OVC090 13 12 94% 76.25 0.0
01 11:56 NE 11 4.83 Rain Fog/Mist FEW008 OVC060 13 12 94% 76.3 0.0
01 10:56 Vrbl 7 9.66 Light Rain Fog/Mist SCT009 OVC043 13 12 94% 76.35 0.0
01 09:56 E 13 11.27 Light Rain FEW007 OVC038 13 12 94% 76.23 0.0
01 08:56 E 15 9.66 Light Rain Fog/Mist SCT007 OVC035 13 12 94% 76.23 0.0
01 07:56 NE 11 4.02 Heavy Rain Fog/Mist FEW012 OVC035 12 11 94% 76.25 0.0
01 06:56 N 15 16.09 Light Rain OVC032 13 11 88% 76.17 0.0
01 05:56 NE 11 16.09 Overcast OVC033 14 10 77% 76.1 0.0
01 04:56 NE 13 16.09 Overcast OVC032 14 10 77% 76.07 0.0
01 03:56 NE 19 16.09 Overcast OVC028 14 11 82% 76.05 0.0
01 02:56 NE 19 16.09 Overcast OVC030 14 11 82% 76.07 0.0
01 01:56 NE 19 16.09 Overcast OVC029 15 11 77% 76.15 0.0
01 00:56 N 15 16.09 Light Rain FEW017 OVC031 15 12 82% 76.17 0.0
30 23:56 N 13 16.09 Light Rain FEW017 OVC031 15 13 88% 76.07 0.0
30 22:56 N 13 16.09 Overcast FEW017 OVC035 16 13 83% 76.17 0.0
30 21:56 NE 13 16.09 Overcast FEW014 OVC035 16 13 83% 76.12 0.0
30 20:56 NE 11 16.09 Overcast FEW007 SCT013 OVC035 16 14 88% 76.1 0.0
30 20:39 Vrbl 7 16.09 Overcast FEW008 SCT013 OVC037 16 14 88% 76.07 0.0
30 19:56 N 17 14.48 Overcast SCT006 BKN018 OVC038 16 14 88% 76 0.0
30 19:30 NE 17 12.87 Light Rain SCT005 BKN018 OVC039 16 14 88% 75.95 0.0
30 18:56 NE 17 12.87 Light Rain BKN006 BKN012 BKN050 OVC100 16 15 94% 75.95 0.0
30 17:56 NE 13 12.87 Light Rain FEW009 SCT048 BKN080 OVC110 16 15 94% 75.92 0.0
30 16:56 E 9 12.87 Light Rain FEW036 SCT044 BKN065 OVC110 16 14 88% 75.95 0.0
30 15:56 E 11 8.05 Light Rain Fog/Mist FEW016 SCT035 OVC090 16 14 88% 76.07 0.0
30 14:56 E 22 8.05 Light Rain Fog/Mist FEW022 BKN032 OVC050 16 14 88% 76.02 0.0
30 13:56 N 15 16.09 Light Rain BKN021 OVC030 18 13 73% 76.12 0.0
30 12:56 NE 20 16.09 Overcast BKN020 OVC038 18 14 78% 76.07 0.0
30 11:56 E 22 16.09 Overcast BKN018 OVC033 18 14 78% 76.07 0.0
30 10:56 NE 20 16.09 Overcast OVC017 17 14 83% 76.1 0.0
30 09:56 E 20 16.09 Overcast BKN017 OVC031 17 14 83% 76.07 0.0
30 08:56 E 19 16.09 Overcast FEW009 BKN014 OVC031 17 14 83% 76.1 0.0
30 07:56 E 19 16.09 Overcast FEW010 BKN017 OVC027 16 14 88% 76.05 0.0
30 06:56 E 15 16.09 Overcast BKN012 OVC025 16 14 88% 76.02 0.0
30 05:56 NE 19 G 30 16.09 Overcast BKN010 OVC027 16 15 94% 75.95 0.0
30 04:56 NE 24 G 35 16.09 Overcast OVC009 16 15 94% 76 0.0
30 03:56 NE 20 G 33 16.09 Light Drizzle BKN008 OVC021 16 15 94% 75.97 0.0
30 02:56 NE 15 16.09 Light Rain OVC010 17 16 94% 76.02 0.0
30 01:56 N 22 16.09 Thunderstorm OVC008CB 17 16 94% 76.12 0.0
30 00:56 NE 13 6.44 Thunderstorm Light Rain Fog/Mist OVC004CB 17 16 94% 76.05 0.0
29 23:56 NE 22 16.09 Overcast OVC007 17 16 94% 75.97 0.0
29 22:56 NE 20 16.09 Overcast OVC007 18 17 94% 76.1 0.0
29 21:56 E 13 16.09 Overcast BKN008 OVC012 18 17 94% 76.05 0.0
29 20:56 NE 13 16.09 Overcast BKN008 OVC012 18 17 94% 75.95 0.0
29 19:56 NE 17 16.09 Overcast BKN007 OVC012 19 18 94% 75.79 0.0
29 18:56 N 11 16.09 Overcast FEW001 OVC006 20 19 94% 75.79 0.0
29 17:56 SE 13 11.27 Thunderstorm Light Rain FEW005 BKN020CB OVC040 19 19 100% 75.82 0.0
29 16:56 N 19 4.83 Thunderstorm Light Rain Fog/Mist FEW008 BKN027CB OVC040 19 19 100% 75.95 0.0
29 15:56 NE 9 16.09 Mostly Cloudy FEW010 SCT025 BKN040 20 18 88% 75.84 0.0
29 14:56 N 19 G 30 8.05 Thunderstorm Light Rain Fog/Mist SCT006 BKN009 OVC022CB 20 18 88% 75.95 0.0
29 13:56 N 13 4.83 Thunderstorm Light Rain Fog/Mist BKN006 OVC010CB 21 19 88% 76 0.0
Date Time (cdt) Wind (kph) Vis. (km) Weather Sky Cond. Air Dwpt Max. Min. Relative Humidity Wind Chill (°C) Heat Index (°C) altimeter (cm) sea level (mb) 1 hr 3 hr 6 hr
6 hour
Temperature (ºC) Pressure Precipitation (cm)